createdAt,value
2022-12-09T00:00:12.287Z,12.40
2022-12-09T00:02:14.391Z,12.55
2022-12-09T00:04:17.313Z,12.77
2022-12-09T00:06:21.723Z,11.65
2022-12-09T00:08:23.387Z,12.88
2022-12-09T00:10:24.910Z,14.10
2022-12-09T00:12:26.397Z,11.68
2022-12-09T00:14:28.806Z,12.85
2022-12-09T00:16:30.677Z,12.60
2022-12-09T00:18:32.417Z,12.52
2022-12-09T00:20:33.941Z,11.93
2022-12-09T00:22:35.448Z,12.40
2022-12-09T00:24:36.923Z,12.48
2022-12-09T00:26:39.430Z,11.43
2022-12-09T00:28:41.522Z,12.02
2022-12-09T00:30:43.075Z,12.45
2022-12-09T00:32:44.644Z,12.85
2022-12-09T00:34:46.166Z,12.35
2022-12-09T00:36:47.741Z,11.90
2022-12-09T00:38:49.695Z,11.35
2022-12-09T00:40:51.365Z,12.02
2022-12-09T00:42:53.061Z,12.15
2022-12-09T00:44:54.604Z,11.98
2022-12-09T00:46:56.115Z,11.82
2022-12-09T00:48:57.753Z,12.73
2022-12-09T00:50:59.212Z,12.27
2022-12-09T00:53:00.720Z,12.50
2022-12-09T00:55:02.367Z,12.57
2022-12-09T00:57:04.512Z,12.23
2022-12-09T00:59:05.993Z,12.43
2022-12-09T01:01:07.826Z,12.93
2022-12-09T01:03:16.919Z,12.27
2022-12-09T01:05:18.667Z,12.50
2022-12-09T01:07:20.382Z,12.23
2022-12-09T01:09:22.616Z,11.75
2022-12-09T01:11:27.706Z,11.68
2022-12-09T01:13:29.288Z,11.35
2022-12-09T01:15:30.900Z,12.18
2022-12-09T01:17:32.626Z,11.80
2022-12-09T01:19:34.408Z,13.45
2022-12-09T01:21:36.091Z,11.93
2022-12-09T01:23:37.716Z,11.68
2022-12-09T01:25:39.405Z,12.82
2022-12-09T01:27:41.121Z,14.88
2022-12-09T01:29:42.597Z,11.40
2022-12-09T01:31:44.433Z,10.82
2022-12-09T01:33:46.469Z,11.60
2022-12-09T01:35:48.047Z,11.32
2022-12-09T01:37:49.615Z,11.68
2022-12-09T01:39:51.339Z,11.77
2022-12-09T01:41:52.953Z,11.50
2022-12-09T01:44:11.056Z,12.30
2022-12-09T01:46:12.968Z,13.82
2022-12-09T01:48:18.677Z,13.13
2022-12-09T01:50:20.789Z,12.70
2022-12-09T01:52:23.739Z,14.02
2022-12-09T01:54:25.869Z,13.77
2022-12-09T01:56:33.524Z,13.32
2022-12-09T01:58:35.274Z,12.82
2022-12-09T02:00:37.004Z,12.25
2022-12-09T02:02:42.018Z,12.98
2022-12-09T02:04:47.860Z,13.63
2022-12-09T02:06:49.637Z,13.35
2022-12-09T02:08:51.770Z,13.80
2022-12-09T02:11:09.477Z,13.70
2022-12-09T02:13:19.815Z,13.50
2022-12-09T02:15:26.084Z,13.38
2022-12-09T02:17:52.573Z,14.50
2022-12-09T02:20:17.472Z,13.30
2022-12-09T02:22:29.358Z,13.68
2022-12-09T02:24:56.872Z,13.95
2022-12-09T02:27:09.385Z,14.77
2022-12-09T02:29:45.008Z,14.98
2022-12-09T02:32:10.692Z,14.98
2022-12-09T02:34:19.775Z,14.82
2022-12-09T02:36:25.810Z,15.50
2022-12-09T02:38:30.395Z,15.77
2022-12-09T02:40:43.779Z,16.67
2022-12-09T02:42:47.114Z,14.82
2022-12-09T02:44:51.457Z,14.32
2022-12-09T02:46:55.422Z,16.23
2022-12-09T02:48:59.327Z,15.23
2022-12-09T02:51:04.467Z,15.30
2022-12-09T02:53:10.596Z,15.73
2022-12-09T02:55:15.802Z,16.65
2022-12-09T02:57:22.349Z,15.35
2022-12-09T02:59:23.945Z,16.25
2022-12-09T03:01:42.870Z,16.55
2022-12-09T03:03:45.418Z,15.40
2022-12-09T03:06:00.705Z,16.10
2022-12-09T03:08:08.180Z,16.83
2022-12-09T03:10:17.761Z,14.68
2022-12-09T03:12:20.903Z,15.70
2022-12-09T03:14:30.106Z,15.35
2022-12-09T03:16:53.772Z,16.20
2022-12-09T03:19:17.480Z,15.73
2022-12-09T03:21:22.020Z,15.65
2022-12-09T03:23:28.990Z,16.23
2022-12-09T03:25:34.439Z,16.08
2022-12-09T03:27:41.800Z,16.75
2022-12-09T03:29:47.018Z,16.27
2022-12-09T03:31:50.942Z,16.83
2022-12-09T03:33:57.910Z,16.13
2022-12-09T03:36:04.858Z,15.68
2022-12-09T03:38:10.235Z,15.05
2022-12-09T03:40:16.099Z,14.95
2022-12-09T03:42:31.243Z,14.85
2022-12-09T03:44:40.241Z,14.52
2022-12-09T03:46:42.067Z,13.65
2022-12-09T03:48:43.712Z,15.18
2022-12-09T03:50:57.754Z,15.40
2022-12-09T03:53:13.000Z,15.25
2022-12-09T03:55:39.111Z,14.48
2022-12-09T03:57:44.709Z,15.10
2022-12-09T03:59:53.574Z,14.88
2022-12-09T04:03:58.114Z,13.60
2022-12-09T04:05:59.893Z,16.08
2022-12-09T04:08:01.434Z,14.98
2022-12-09T04:10:04.705Z,14.65
2022-12-09T04:12:06.903Z,14.10
2022-12-09T04:14:15.027Z,14.40
2022-12-09T04:16:17.478Z,14.93
2022-12-09T04:18:20.014Z,14.85
2022-12-09T04:20:21.579Z,14.15
2022-12-09T04:22:23.070Z,15.10
2022-12-09T04:24:24.530Z,14.77
2022-12-09T04:26:25.979Z,15.27
2022-12-09T04:28:27.423Z,14.63
2022-12-09T04:30:29.142Z,14.55
2022-12-09T04:32:31.444Z,12.85
2022-12-09T04:34:34.040Z,15.13
2022-12-09T04:36:35.678Z,15.40
2022-12-09T04:38:37.959Z,14.95
2022-12-09T04:40:39.692Z,13.35
2022-12-09T04:42:41.207Z,15.02
2022-12-09T04:44:42.664Z,14.90
2022-12-09T04:46:44.291Z,14.07
2022-12-09T04:48:45.863Z,14.93
2022-12-09T04:50:47.467Z,13.90
2022-12-09T04:52:49.020Z,14.20
2022-12-09T04:54:51.046Z,13.95
2022-12-09T04:56:52.717Z,13.40
2022-12-09T04:58:54.259Z,13.52
2022-12-09T05:00:56.655Z,14.57
2022-12-09T05:02:58.326Z,14.55
2022-12-09T05:05:03.024Z,14.52
2022-12-09T05:07:04.862Z,14.65
2022-12-09T05:09:11.511Z,15.00
2022-12-09T05:11:17.950Z,13.85
2022-12-09T05:13:19.507Z,14.38
2022-12-09T05:15:21.710Z,14.05
2022-12-09T05:17:23.391Z,14.55
2022-12-09T05:19:25.152Z,14.00
2022-12-09T05:21:26.961Z,13.63
2022-12-09T05:23:28.721Z,14.15
2022-12-09T05:25:30.339Z,13.82
2022-12-09T05:27:31.881Z,13.90
2022-12-09T05:29:33.572Z,14.00
2022-12-09T05:31:35.555Z,13.60
2022-12-09T05:33:37.767Z,13.88
2022-12-09T05:35:50.518Z,13.75
2022-12-09T05:37:53.786Z,14.75
2022-12-09T05:39:55.403Z,14.15
2022-12-09T05:41:57.087Z,14.38
2022-12-09T05:43:58.976Z,13.70
2022-12-09T05:46:01.843Z,13.77
2022-12-09T05:48:03.761Z,13.55
2022-12-09T05:50:08.606Z,12.90
2022-12-09T05:52:14.377Z,13.93
2022-12-09T05:54:16.420Z,13.55
2022-12-09T05:56:19.931Z,14.15
2022-12-09T05:58:22.284Z,14.18
2022-12-09T06:00:24.422Z,13.10
2022-12-09T06:02:26.244Z,14.13
2022-12-09T06:04:28.062Z,14.02
2022-12-09T06:06:32.772Z,14.52
2022-12-09T06:08:35.465Z,14.23
2022-12-09T06:10:41.410Z,13.02
2022-12-09T06:12:49.031Z,13.40
2022-12-09T06:14:51.002Z,14.13
2022-12-09T06:16:52.649Z,15.02
2022-12-09T06:18:58.510Z,14.18
2022-12-09T06:21:05.461Z,13.68
2022-12-09T06:23:07.911Z,13.50
2022-12-09T06:25:10.685Z,12.23
2022-12-09T06:27:12.363Z,13.40
2022-12-09T06:29:13.977Z,12.73
2022-12-09T06:31:16.425Z,12.60
2022-12-09T06:33:52.380Z,14.43
2022-12-09T06:35:39.597Z,12.57
2022-12-09T06:37:41.756Z,13.38
2022-12-09T06:39:43.721Z,13.07
2022-12-09T06:41:45.611Z,13.10
2022-12-09T06:43:47.674Z,14.32
2022-12-09T06:45:49.208Z,13.30
2022-12-09T06:47:50.775Z,14.32
2022-12-09T06:49:52.573Z,14.38
2022-12-09T06:51:54.154Z,14.27
2022-12-09T06:53:56.058Z,14.63
2022-12-09T06:56:07.897Z,15.00
2022-12-09T06:58:12.937Z,14.55
2022-12-09T07:00:15.950Z,14.77
2022-12-09T07:02:17.900Z,15.07
2022-12-09T07:04:19.680Z,14.23
2022-12-09T07:06:25.425Z,14.60
2022-12-09T07:08:27.680Z,14.07
2022-12-09T07:10:29.934Z,14.02
2022-12-09T07:12:31.612Z,13.95
2022-12-09T07:14:33.258Z,13.05
2022-12-09T07:16:36.192Z,14.23
2022-12-09T07:18:38.187Z,13.27
2022-12-09T07:20:39.832Z,13.88
2022-12-09T07:22:41.423Z,13.93
2022-12-09T07:24:44.033Z,14.48
2022-12-09T07:26:46.364Z,14.02
2022-12-09T07:28:50.190Z,13.07
2022-12-09T07:30:51.965Z,13.95
2022-12-09T07:32:53.734Z,14.60
2022-12-09T07:34:55.628Z,14.30
2022-12-09T07:36:57.321Z,14.10
2022-12-09T07:39:02.219Z,14.75
2022-12-09T07:41:08.883Z,15.25
2022-12-09T07:43:10.619Z,13.48
2022-12-09T07:45:14.024Z,17.83
2022-12-09T07:47:16.396Z,18.30
2022-12-09T07:49:18.387Z,19.95
2022-12-09T07:51:20.536Z,20.52
2022-12-09T07:53:22.343Z,20.35
2022-12-09T07:55:24.067Z,20.85
2022-12-09T07:57:25.597Z,23.48
2022-12-09T07:59:27.178Z,24.42
2022-12-09T08:01:30.179Z,23.98
2022-12-09T08:03:31.978Z,22.58
2022-12-09T08:05:33.784Z,20.70
2022-12-09T08:07:40.166Z,24.92
2022-12-09T08:09:45.655Z,21.35
2022-12-09T08:11:47.736Z,21.85
2022-12-09T08:13:50.359Z,21.33
2022-12-09T08:15:52.393Z,21.25
2022-12-09T08:17:54.536Z,26.00
2022-12-09T08:19:56.661Z,22.02
2022-12-09T08:21:58.607Z,26.25
2022-12-09T08:24:02.371Z,25.02
2022-12-09T08:26:05.248Z,22.45
2022-12-09T08:28:07.164Z,24.33
2022-12-09T08:30:09.349Z,25.13
2022-12-09T08:32:11.336Z,28.02
2022-12-09T08:34:14.588Z,29.08
2022-12-09T08:36:23.101Z,27.63
2022-12-09T08:38:24.678Z,27.48
2022-12-09T08:40:26.393Z,26.67
2022-12-09T08:42:30.496Z,25.92
2022-12-09T08:44:32.398Z,27.55
2022-12-09T08:46:35.645Z,30.23
2022-12-09T08:48:39.040Z,29.73
2022-12-09T08:50:40.811Z,29.25
2022-12-09T08:52:43.004Z,27.95
2022-12-09T08:54:44.944Z,27.50
2022-12-09T08:56:48.641Z,27.80
2022-12-09T08:58:50.183Z,27.17
2022-12-09T09:00:52.358Z,28.05
2022-12-09T09:02:54.266Z,28.00
2022-12-09T09:04:57.537Z,27.55
2022-12-09T09:07:00.378Z,27.95
2022-12-09T09:09:02.489Z,28.88
2022-12-09T09:11:10.455Z,30.58
2022-12-09T09:13:12.138Z,29.02
2022-12-09T09:15:14.494Z,30.73
2022-12-09T09:17:16.902Z,28.70
2022-12-09T09:19:22.045Z,29.50
2022-12-09T09:21:26.863Z,27.88
2022-12-09T09:23:28.763Z,31.88
2022-12-09T09:25:30.605Z,28.50
2022-12-09T09:27:32.249Z,27.45
2022-12-09T09:29:34.266Z,25.00
2022-12-09T09:31:36.565Z,29.75
2022-12-09T09:33:38.250Z,30.67
2022-12-09T09:35:39.747Z,25.70
2022-12-09T09:37:41.196Z,26.73
2022-12-09T09:39:43.303Z,22.98
2022-12-09T09:41:57.159Z,26.55
2022-12-09T09:44:00.225Z,24.30
2022-12-09T09:46:05.215Z,25.20
2022-12-09T09:48:11.868Z,24.23
2022-12-09T09:50:27.640Z,26.02
2022-12-09T09:52:30.396Z,27.83
2022-12-09T09:54:32.467Z,25.77
2022-12-09T09:56:43.181Z,26.25
2022-12-09T09:59:16.001Z,27.67
2022-12-09T10:01:19.049Z,24.80
2022-12-09T10:03:32.569Z,25.33
2022-12-09T10:05:50.914Z,27.77
2022-12-09T10:07:58.325Z,25.92
2022-12-09T10:10:12.133Z,28.85
2022-12-09T10:12:38.156Z,26.88
2022-12-09T10:15:09.661Z,30.25
2022-12-09T10:17:34.641Z,28.98
2022-12-09T10:19:42.768Z,30.40
2022-12-09T10:21:46.781Z,31.10
2022-12-09T10:23:49.972Z,25.40
2022-12-09T10:26:00.366Z,24.60
2022-12-09T10:28:19.430Z,33.05
2022-12-09T10:30:21.607Z,24.90
2022-12-09T10:32:26.657Z,27.85
2022-12-09T10:34:28.430Z,31.70
2022-12-09T10:36:35.775Z,27.05
2022-12-09T10:38:41.165Z,26.50
2022-12-09T10:40:46.001Z,28.98
2022-12-09T10:43:08.076Z,23.98
2022-12-09T10:45:10.872Z,23.45
2022-12-09T10:47:27.226Z,25.13
2022-12-09T10:49:29.557Z,23.80
2022-12-09T10:51:35.658Z,23.92
2022-12-09T10:53:44.710Z,23.67
2022-12-09T10:55:52.300Z,25.27
2022-12-09T10:58:10.481Z,24.95
2022-12-09T11:00:28.367Z,24.63
2022-12-09T11:02:34.112Z,26.33
2022-12-09T11:04:42.119Z,23.48
2022-12-09T11:06:44.927Z,26.45
2022-12-09T11:08:52.540Z,25.17
2022-12-09T11:10:54.625Z,25.80
2022-12-09T11:13:06.207Z,27.17
2022-12-09T11:15:28.009Z,26.17
2022-12-09T11:17:37.767Z,25.75
2022-12-09T11:19:40.914Z,28.60
2022-12-09T11:21:42.947Z,26.48
2022-12-09T11:24:00.697Z,25.25
2022-12-09T11:26:07.010Z,25.95
2022-12-09T11:28:18.020Z,23.55
2022-12-09T11:30:34.141Z,23.40
2022-12-09T11:32:52.838Z,26.40
2022-12-09T11:36:58.981Z,22.33
2022-12-09T11:39:30.042Z,22.75
2022-12-09T11:41:49.729Z,22.85
2022-12-09T11:43:54.382Z,23.30
2022-12-09T11:45:56.075Z,23.27
2022-12-09T11:48:29.807Z,24.40
2022-12-09T11:50:37.452Z,25.05
2022-12-09T11:52:38.996Z,25.35
2022-12-09T11:55:15.085Z,25.15
2022-12-09T11:57:38.234Z,24.23
2022-12-09T11:59:48.560Z,26.67
2022-12-09T12:02:22.965Z,23.52
2022-12-09T12:04:34.737Z,23.00
2022-12-09T12:06:48.118Z,23.67
2022-12-09T12:08:54.479Z,25.77
2022-12-09T12:11:00.686Z,24.30
2022-12-09T12:13:22.234Z,25.52
2022-12-09T12:15:38.156Z,24.73
2022-12-09T12:17:49.523Z,23.25
2022-12-09T12:19:53.314Z,24.17
2022-12-09T12:22:03.732Z,24.35
2022-12-09T12:24:14.404Z,25.10
2022-12-09T12:26:44.910Z,25.23
2022-12-09T12:29:11.211Z,22.48
2022-12-09T12:31:21.659Z,23.48
2022-12-09T12:36:12.898Z,24.95
2022-12-09T12:38:31.716Z,25.45
2022-12-09T12:40:38.702Z,25.65
2022-12-09T12:43:44.374Z,23.25
2022-12-09T12:46:17.361Z,22.63
2022-12-09T12:48:38.274Z,23.77
2022-12-09T12:51:11.398Z,24.35
2022-12-09T12:53:12.784Z,26.00
2022-12-09T12:55:36.572Z,24.67
2022-12-09T12:57:55.022Z,25.10
2022-12-09T13:00:12.877Z,23.25
2022-12-09T13:02:35.431Z,24.25
2022-12-09T13:04:47.308Z,22.90
2022-12-09T13:06:52.972Z,25.17
2022-12-09T13:09:03.220Z,23.65
2022-12-09T13:11:12.180Z,25.52
2022-12-09T13:13:20.724Z,23.50
2022-12-09T13:15:32.337Z,23.92
2022-12-09T13:17:33.807Z,23.45
2022-12-09T13:19:41.700Z,24.40
2022-12-09T13:21:45.593Z,24.13
2022-12-09T13:24:08.605Z,24.17
2022-12-09T13:26:36.246Z,24.50
2022-12-09T13:28:44.698Z,24.60
2022-12-09T13:30:56.868Z,26.05
2022-12-09T13:33:16.378Z,24.85
2022-12-09T13:35:29.494Z,24.52
2022-12-09T13:37:32.339Z,24.85
2022-12-09T13:39:39.758Z,24.70
2022-12-09T13:42:02.482Z,25.42
2022-12-09T13:44:09.889Z,24.20
2022-12-09T13:46:22.453Z,25.63
2022-12-09T13:48:23.878Z,25.33
2022-12-09T13:50:43.487Z,25.05
2022-12-09T13:52:50.793Z,24.48
2022-12-09T13:54:52.315Z,25.05
2022-12-09T13:57:06.015Z,24.25
2022-12-09T13:59:26.457Z,25.25
2022-12-09T14:01:57.482Z,24.30
2022-12-09T14:04:12.094Z,25.23
2022-12-09T14:06:29.060Z,25.33
2022-12-09T14:08:39.094Z,24.08
2022-12-09T14:10:47.732Z,25.63
2022-12-09T14:12:54.974Z,26.95
2022-12-09T14:14:58.913Z,26.55
2022-12-09T14:17:18.091Z,24.77
2022-12-09T14:19:25.351Z,27.25
2022-12-09T14:21:30.311Z,26.70
2022-12-09T14:23:31.843Z,25.10
2022-12-09T14:25:35.863Z,23.70
2022-12-09T14:27:37.319Z,25.95
2022-12-09T14:29:52.870Z,25.85
2022-12-09T14:32:00.778Z,25.77
2022-12-09T14:34:17.578Z,26.17
2022-12-09T14:36:19.227Z,25.08
2022-12-09T14:41:26.052Z,25.55
2022-12-09T14:43:34.598Z,25.70
2022-12-09T14:45:48.915Z,26.52
2022-12-09T14:47:50.913Z,24.88
2022-12-09T14:49:55.322Z,25.80
2022-12-09T14:52:17.518Z,25.45
2022-12-09T14:54:42.036Z,24.63
2022-12-09T14:56:52.582Z,25.52
2022-12-09T14:59:07.485Z,25.67
2022-12-09T15:01:09.236Z,24.95
2022-12-09T15:03:42.966Z,25.23
2022-12-09T15:05:53.888Z,26.35
2022-12-09T15:07:55.746Z,26.05
2022-12-09T15:09:58.382Z,24.95
2022-12-09T15:12:00.037Z,25.65
2022-12-09T15:14:26.481Z,24.92
2022-12-09T15:16:28.026Z,25.13
2022-12-09T15:18:30.882Z,26.52
2022-12-09T15:20:38.056Z,26.92
2022-12-09T15:22:39.543Z,26.88
2022-12-09T15:24:50.049Z,26.25
2022-12-09T15:27:03.519Z,24.85
2022-12-09T15:29:06.429Z,25.88
2022-12-09T15:31:18.525Z,25.38
2022-12-09T15:33:20.139Z,26.00
2022-12-09T15:35:25.004Z,26.88
2022-12-09T15:37:28.563Z,24.67
2022-12-09T15:39:38.282Z,25.17
2022-12-09T15:42:03.482Z,25.27
2022-12-09T15:44:09.641Z,26.50
2022-12-09T15:46:12.246Z,28.33
2022-12-09T15:48:19.513Z,25.20
2022-12-09T15:50:46.846Z,26.02
2022-12-09T15:52:55.349Z,25.70
2022-12-09T15:54:58.619Z,28.15
2022-12-09T15:57:02.566Z,25.20
2022-12-09T15:59:15.904Z,26.98
2022-12-09T16:01:30.756Z,25.52
2022-12-09T16:03:35.408Z,26.73
2022-12-09T16:05:41.740Z,24.20
2022-12-09T16:07:58.670Z,26.02
2022-12-09T16:10:00.128Z,26.65
2022-12-09T16:12:01.576Z,25.13
2022-12-09T16:14:03.235Z,26.00
2022-12-09T16:16:26.800Z,26.13
2022-12-09T16:18:49.643Z,26.50
2022-12-09T16:21:17.902Z,26.30
2022-12-09T16:23:22.015Z,25.15
2022-12-09T16:25:26.784Z,25.45
2022-12-09T16:27:33.488Z,25.50
2022-12-09T16:29:36.886Z,26.92
2022-12-09T16:31:38.405Z,25.63
2022-12-09T16:33:39.944Z,25.20
2022-12-09T16:35:43.264Z,24.25
2022-12-09T16:38:11.909Z,25.48
2022-12-09T16:40:33.643Z,24.77
2022-12-09T16:42:40.587Z,25.05
2022-12-09T16:44:42.407Z,25.67
2022-12-09T16:46:43.986Z,26.27
2022-12-09T16:48:48.207Z,26.17
2022-12-09T16:51:11.989Z,26.15
2022-12-09T16:53:16.291Z,25.85
2022-12-09T16:55:27.963Z,24.55
2022-12-09T16:57:29.402Z,26.10
2022-12-09T16:59:37.561Z,25.67
2022-12-09T17:03:47.971Z,24.02
2022-12-09T17:05:49.476Z,24.35
2022-12-09T17:07:50.980Z,24.77
2022-12-09T17:09:52.449Z,25.38
2022-12-09T17:11:53.928Z,25.67
2022-12-09T17:13:55.410Z,25.17
2022-12-09T17:15:58.543Z,25.65
2022-12-09T17:18:00.175Z,25.83
2022-12-09T17:20:01.671Z,26.23
2022-12-09T17:22:03.410Z,25.70
2022-12-09T17:24:05.173Z,25.25
2022-12-09T17:26:09.614Z,26.35
2022-12-09T17:28:11.047Z,26.50
2022-12-09T17:30:13.051Z,25.92
2022-12-09T17:32:14.540Z,25.05
2022-12-09T17:34:16.004Z,24.35
2022-12-09T17:36:18.979Z,24.55
2022-12-09T17:38:20.666Z,23.85
2022-12-09T17:40:22.226Z,23.75
2022-12-09T17:42:23.674Z,23.60
2022-12-09T17:44:25.158Z,23.98
2022-12-09T17:46:26.993Z,23.05
2022-12-09T17:48:29.957Z,22.95
2022-12-09T17:50:31.697Z,37.60
2022-12-09T17:52:33.414Z,35.85
2022-12-09T17:54:34.970Z,30.17
2022-12-09T17:56:36.683Z,23.83
2022-12-09T17:58:39.654Z,21.67
2022-12-09T18:00:41.829Z,23.13
2022-12-09T18:02:43.334Z,20.83
2022-12-09T18:04:44.901Z,24.23
2022-12-09T18:06:46.383Z,22.25
2022-12-09T18:08:47.833Z,21.42
2022-12-09T18:10:49.279Z,22.02
2022-12-09T18:12:50.727Z,20.67
2022-12-09T18:14:52.155Z,22.30
2022-12-09T18:16:53.708Z,22.38
2022-12-09T18:18:55.905Z,20.85
2022-12-09T18:21:00.660Z,20.33
2022-12-09T18:23:02.103Z,20.88
2022-12-09T18:25:03.601Z,20.90
2022-12-09T18:27:05.109Z,22.75
2022-12-09T18:29:06.681Z,21.67
2022-12-09T18:31:10.192Z,20.73
2022-12-09T18:33:11.790Z,21.05
2022-12-09T18:35:13.223Z,25.65
2022-12-09T18:37:15.441Z,20.55
2022-12-09T18:39:17.857Z,22.00
2022-12-09T18:41:25.435Z,21.77
2022-12-09T18:43:36.286Z,22.02
2022-12-09T18:45:37.737Z,22.35
2022-12-09T18:47:39.176Z,19.65
2022-12-09T18:49:40.666Z,21.25
2022-12-09T18:51:43.914Z,21.42
2022-12-09T18:53:46.241Z,20.83
2022-12-09T18:55:47.697Z,20.05
2022-12-09T18:57:49.143Z,19.02
2022-12-09T18:59:52.730Z,19.60
2022-12-09T19:01:54.595Z,21.40
2022-12-09T19:03:58.586Z,19.30
2022-12-09T19:06:00.076Z,19.55
2022-12-09T19:08:01.556Z,19.52
2022-12-09T19:10:03.415Z,19.58
2022-12-09T19:12:37.856Z,19.58
2022-12-09T19:14:26.828Z,18.92
2022-12-09T19:16:29.137Z,19.83
2022-12-09T19:18:30.900Z,19.02
2022-12-09T19:20:32.512Z,19.23
2022-12-09T19:22:33.962Z,18.88
2022-12-09T19:24:39.741Z,19.15
2022-12-09T19:28:49.041Z,18.60
2022-12-09T19:30:50.537Z,19.85
2022-12-09T19:32:53.430Z,20.33
2022-12-09T19:34:55.143Z,20.40
2022-12-09T19:36:58.967Z,19.92
2022-12-09T19:39:01.539Z,19.60
2022-12-09T19:41:03.691Z,20.50
2022-12-09T19:43:05.259Z,19.38
2022-12-09T19:45:12.070Z,20.27
2022-12-09T19:47:15.272Z,19.92
2022-12-09T19:49:18.784Z,20.23
2022-12-09T19:51:21.154Z,19.17
2022-12-09T19:53:22.645Z,19.88
2022-12-09T19:55:24.093Z,19.27
2022-12-09T19:57:25.632Z,17.85
2022-12-09T19:59:27.725Z,20.27
2022-12-09T20:01:32.965Z,19.90
2022-12-09T20:03:34.481Z,17.85
2022-12-09T20:05:35.929Z,17.95
2022-12-09T20:07:37.493Z,19.33
2022-12-09T20:09:39.831Z,20.42
2022-12-09T20:11:42.051Z,20.50
2022-12-09T20:13:45.303Z,18.33
2022-12-09T20:15:47.000Z,19.38
2022-12-09T20:17:48.467Z,19.60
2022-12-09T20:19:50.039Z,18.50
2022-12-09T20:21:51.576Z,20.00
2022-12-09T20:23:54.394Z,20.13
2022-12-09T20:26:03.660Z,20.60
2022-12-09T20:28:06.202Z,20.73
2022-12-09T20:30:08.607Z,21.02
2022-12-09T20:32:10.542Z,19.60
2022-12-09T20:34:16.292Z,20.58
2022-12-09T20:36:20.715Z,20.77
2022-12-09T20:38:22.158Z,19.30
2022-12-09T20:40:23.771Z,19.70
2022-12-09T20:42:25.345Z,19.63
2022-12-09T20:44:26.937Z,19.75
2022-12-09T20:46:33.336Z,20.73
2022-12-09T20:48:35.950Z,21.67
2022-12-09T20:50:39.028Z,20.77
2022-12-09T20:52:40.549Z,20.17
2022-12-09T20:54:42.026Z,20.33
2022-12-09T20:56:43.656Z,20.45
2022-12-09T20:58:46.833Z,19.73
2022-12-09T21:00:48.319Z,19.63
2022-12-09T21:02:49.866Z,20.60
2022-12-09T21:04:51.397Z,20.13
2022-12-09T21:06:52.952Z,21.48
2022-12-09T21:08:54.655Z,20.80
2022-12-09T21:11:07.119Z,20.88
2022-12-09T21:13:08.604Z,19.88
2022-12-09T21:15:11.860Z,20.23
2022-12-09T21:17:13.322Z,19.90
2022-12-09T21:19:16.639Z,20.38
2022-12-09T21:21:19.451Z,21.48
2022-12-09T21:23:36.095Z,21.15
2022-12-09T21:25:37.555Z,20.20
2022-12-09T21:27:39.851Z,20.17
2022-12-09T21:29:41.347Z,19.90
2022-12-09T21:31:44.189Z,20.98
2022-12-09T21:33:46.796Z,21.13
2022-12-09T21:35:48.291Z,21.10
2022-12-09T21:37:55.878Z,21.40
2022-12-09T21:39:57.613Z,20.43
2022-12-09T21:41:59.594Z,20.80
2022-12-09T21:44:01.151Z,19.25
2022-12-09T21:46:04.530Z,20.45
2022-12-09T21:48:06.278Z,20.88
2022-12-09T21:50:08.606Z,20.35
2022-12-09T21:52:10.918Z,20.05
2022-12-09T21:54:12.421Z,20.77
2022-12-09T21:56:19.004Z,21.45
2022-12-09T21:58:20.773Z,20.80
2022-12-09T22:00:22.411Z,22.25
2022-12-09T22:02:23.922Z,20.88
2022-12-09T22:04:25.395Z,21.33
2022-12-09T22:06:27.228Z,21.60
2022-12-09T22:08:28.704Z,21.42
2022-12-09T22:10:30.187Z,22.27
2022-12-09T22:12:31.657Z,20.50
2022-12-09T22:14:33.110Z,20.52
2022-12-09T22:16:38.913Z,21.23
2022-12-09T22:18:42.279Z,20.23
2022-12-09T22:21:15.941Z,22.38
2022-12-09T22:23:05.685Z,21.13
2022-12-09T22:25:08.315Z,22.92
2022-12-09T22:27:09.774Z,21.40
2022-12-09T22:29:14.093Z,21.88
2022-12-09T22:31:26.783Z,21.58
2022-12-09T22:33:29.045Z,23.15
2022-12-09T22:35:30.541Z,21.60
2022-12-09T22:37:47.403Z,22.38
2022-12-09T22:39:48.918Z,22.55
2022-12-09T22:41:51.100Z,22.73
2022-12-09T22:43:54.561Z,22.15
2022-12-09T22:45:56.073Z,23.05
2022-12-09T22:47:57.555Z,22.35
2022-12-09T22:49:59.053Z,22.00
2022-12-09T22:52:00.949Z,21.65
2022-12-09T22:54:05.266Z,22.20
2022-12-09T22:56:07.894Z,22.98
2022-12-09T22:58:09.335Z,23.15
2022-12-09T23:00:11.547Z,22.48
2022-12-09T23:02:13.683Z,23.45
2022-12-09T23:04:17.555Z,22.63
2022-12-09T23:06:19.079Z,23.17
2022-12-09T23:08:20.607Z,23.20
2022-12-09T23:10:22.115Z,22.48
2022-12-09T23:12:23.651Z,23.27
2022-12-09T23:14:25.396Z,22.88
2022-12-09T23:16:27.403Z,23.58
2022-12-09T23:18:33.555Z,23.45
2022-12-09T23:20:35.103Z,24.05
2022-12-09T23:22:36.878Z,22.38
2022-12-09T23:24:38.448Z,23.88
2022-12-09T23:26:41.552Z,23.88
2022-12-09T23:28:49.093Z,23.65
2022-12-09T23:30:50.819Z,24.70
2022-12-09T23:32:52.347Z,24.25
2022-12-09T23:34:53.838Z,23.80
2022-12-09T23:36:55.919Z,24.27
2022-12-09T23:38:58.250Z,24.95
2022-12-09T23:40:59.980Z,24.73
2022-12-09T23:43:01.412Z,24.98
2022-12-09T23:45:02.894Z,24.33
2022-12-09T23:47:04.461Z,25.90
2022-12-09T23:49:07.518Z,24.73
2022-12-09T23:51:19.238Z,24.63
2022-12-09T23:53:21.664Z,23.65
2022-12-09T23:55:23.098Z,25.08
2022-12-09T23:57:24.555Z,25.83
2022-12-09T23:59:25.983Z,25.23
